Time;durP1;ratioP1;P1;durP2;ratioP2;P2;SDS_P1;SDS_P2;PMS_P1;PMS_P2;Temp;Humidity;BMP_temperature;BMP_pressure;BME280_temperature;BME280_humidity;BME280_pressure;Samples;Min_cycle;Max_cycle;Signal;HPM_P1;HPM_P2
2021/09/18 00:07:55;;;;;;;19.1;8;;;;;;;13.28;100;98119.94;;;;
2021/09/18 00:17:54;;;;;;;9.3;6.9;;;;;;;13.14;100;98130.28;;;;
2021/09/18 00:27:54;;;;;;;11.3;7.7;;;;;;;13.09;100;98134.77;;;;
2021/09/18 00:37:54;;;;;;;11.9;7.6;;;;;;;13.14;100;98125.66;;;;
2021/09/18 00:47:53;;;;;;;10.4;7.4;;;;;;;13.05;100;98127.65;;;;
2021/09/18 00:57:53;;;;;;;10;7.6;;;;;;;13.05;100;98131.12;;;;
2021/09/18 01:07:52;;;;;;;12;9;;;;;;;12.98;100;98144.4;;;;
2021/09/18 01:17:51;;;;;;;9.7;7;;;;;;;13;100;98133.25;;;;
2021/09/18 01:27:51;;;;;;;11.4;9.9;;;;;;;13.03;100;98129.88;;;;
2021/09/18 01:37:50;;;;;;;12.1;10.2;;;;;;;12.94;100;98113.75;;;;
2021/09/18 01:47:50;;;;;;;14.3;8.9;;;;;;;13.04;100;98113.33;;;;
2021/09/18 01:57:49;;;;;;;7.7;6.5;;;;;;;13.02;100;98109.35;;;;
2021/09/18 02:07:49;;;;;;;15;9.4;;;;;;;12.89;100;98108.55;;;;
2021/09/18 02:17:48;;;;;;;8;5.4;;;;;;;12.9;100;98109.34;;;;
2021/09/18 02:27:48;;;;;;;8;5.1;;;;;;;12.77;100;98105.81;;;;
2021/09/18 02:37:47;;;;;;;7.6;4.7;;;;;;;12.78;100;98101.97;;;;
2021/09/18 02:47:46;;;;;;;4.7;3.1;;;;;;;12.71;100;98096.31;;;;
2021/09/18 02:57:46;;;;;;;5.3;4.2;;;;;;;12.69;100;98103.97;;;;
2021/09/18 03:07:45;;;;;;;5.9;3.7;;;;;;;12.71;100;98096.31;;;;
2021/09/18 03:17:45;;;;;;;5.3;2.7;;;;;;;12.63;100;98094.5;;;;
2021/09/18 03:27:44;;;;;;;5.9;3.6;;;;;;;12.52;100;98090.62;;;;
2021/09/18 03:37:43;;;;;;;6.7;4.7;;;;;;;12.56;100;98084.2;;;;
2021/09/18 03:47:43;;;;;;;11.5;7.6;;;;;;;12.55;100;98087.25;;;;
2021/09/18 03:57:42;;;;;;;9.5;6.6;;;;;;;12.53;100;98073.26;;;;
2021/09/18 04:07:41;;;;;;;12.4;6.8;;;;;;;12.51;100;98075.52;;;;
2021/09/18 04:17:41;;;;;;;8.3;5;;;;;;;12.42;100;98077.52;;;;
2021/09/18 04:27:40;;;;;;;7.9;5.4;;;;;;;12.37;100;98092.02;;;;
2021/09/18 04:37:40;;;;;;;8.9;6;;;;;;;12.41;100;98097.55;;;;
2021/09/18 04:47:39;;;;;;;11.6;7.3;;;;;;;12.44;100;98104.98;;;;
2021/09/18 04:57:38;;;;;;;16.8;10.6;;;;;;;12.52;100;98107.63;;;;
2021/09/18 05:07:38;;;;;;;11.2;6.4;;;;;;;12.63;100;98108.78;;;;
2021/09/18 05:17:37;;;;;;;10.2;5.8;;;;;;;12.63;100;98116.13;;;;
2021/09/18 05:27:36;;;;;;;8.6;5;;;;;;;12.73;100;98126.53;;;;
2021/09/18 05:37:36;;;;;;;7.1;4.2;;;;;;;12.84;100;98132.31;;;;
2021/09/18 05:47:35;;;;;;;6.7;4.5;;;;;;;12.88;100;98139.41;;;;
2021/09/18 05:57:35;;;;;;;10.3;5.5;;;;;;;12.92;100;98140.33;;;;
2021/09/18 06:07:34;;;;;;;10.9;5.7;;;;;;;13.08;100;98143.21;;;;
2021/09/18 06:17:34;;;;;;;8.6;5.4;;;;;;;13.09;100;98150.2;;;;
2021/09/18 06:27:33;;;;;;;7.5;5.3;;;;;;;13.55;100;98140.94;;;;
2021/09/18 06:37:33;;;;;;;6.8;5;;;;;;;13.5;100;98149.3;;;;
2021/09/18 06:47:32;;;;;;;5.8;3.6;;;;;;;13.6;100;98157.77;;;;
2021/09/18 06:57:32;;;;;;;6;4;;;;;;;13.42;100;98169.92;;;;
2021/09/18 07:07:32;;;;;;;9;6.5;;;;;;;13.32;100;98162.23;;;;
2021/09/18 07:17:31;;;;;;;8.1;5.2;;;;;;;13.58;100;98156.51;;;;
2021/09/18 07:27:31;;;;;;;6.7;4.6;;;;;;;13.67;100;98154.5;;;;
2021/09/18 07:37:30;;;;;;;6.1;3.8;;;;;;;13.55;100;98160.69;;;;
2021/09/18 07:47:30;;;;;;;6.8;3.1;;;;;;;13.34;100;98173.51;;;;
2021/09/18 07:57:29;;;;;;;8.3;4.7;;;;;;;13.26;100;98168.97;;;;
2021/09/18 08:07:29;;;;;;;6.3;4.1;;;;;;;13.09;100;98178.06;;;;
2021/09/18 08:17:29;;;;;;;5.6;3.7;;;;;;;13.23;100;98179.67;;;;
2021/09/18 08:27:28;;;;;;;5.5;3.4;;;;;;;13.64;100;98181.47;;;;
2021/09/18 08:37:29;;;;;;;5.3;3.3;;;;;;;13.68;100;98188.56;;;;
2021/09/18 08:47:27;;;;;;;9.4;5.5;;;;;;;14.02;100;98190.06;;;;
2021/09/18 08:57:27;;;;;;;6.9;5.6;;;;;;;14.07;100;98190.61;;;;
2021/09/18 09:07:26;;;;;;;5.5;4.6;;;;;;;14.34;100;98180.21;;;;
2021/09/18 09:17:26;;;;;;;7.4;4.1;;;;;;;15.14;100;98178.26;;;;
2021/09/18 09:27:26;;;;;;;5.9;3;;;;;;;15.32;100;98178.73;;;;
2021/09/18 09:37:25;;;;;;;7.7;3.1;;;;;;;15.2;100;98182.32;;;;
2021/09/18 09:47:26;;;;;;;4.6;2.4;;;;;;;15.2;100;98186.95;;;;
2021/09/18 09:57:25;;;;;;;4.7;2.4;;;;;;;15.02;100;98176.41;;;;
2021/09/18 10:07:25;;;;;;;4.4;2.7;;;;;;;15.3;100;98170.16;;;;
2021/09/18 10:17:24;;;;;;;11.5;2.6;;;;;;;15.69;100;98171.95;;;;
2021/09/18 10:27:24;;;;;;;3.3;1.8;;;;;;;15.92;100;98175.64;;;;
2021/09/18 10:37:24;;;;;;;4.2;2.1;;;;;;;16.07;100;98177.53;;;;
2021/09/18 10:47:24;;;;;;;9.6;3;;;;;;;15.17;100;98180.27;;;;
2021/09/18 11:07:32;;;;;;;4.6;2.5;;;;;;;15.45;100;98172.88;;;;
2021/09/18 11:17:44;;;;;;;4.8;2.4;;;;;;;15.51;100;98176.17;;;;
2021/09/18 11:27:23;;;;;;;6.4;2.9;;;;;;;15.46;100;98173.67;;;;
2021/09/18 11:37:23;;;;;;;6.3;2;;;;;;;15.4;100;98170.44;;;;
2021/09/18 11:47:23;;;;;;;9;2.8;;;;;;;15.07;100;98173.42;;;;
2021/09/18 11:57:22;;;;;;;13.4;5.5;;;;;;;14.96;100;98180.48;;;;
2021/09/18 12:07:22;;;;;;;4.9;3.1;;;;;;;14.92;100;98190.47;;;;
2021/09/18 12:17:23;;;;;;;6.7;4.2;;;;;;;15.43;100;98182.52;;;;
2021/09/18 12:27:36;;;;;;;5.4;3.6;;;;;;;15.59;100;98181.42;;;;
2021/09/18 12:37:21;;;;;;;6.6;3;;;;;;;16;100;98182.8;;;;
2021/09/18 12:47:28;;;;;;;7;3.7;;;;;;;16.65;100;98166.81;;;;
2021/09/18 12:57:21;;;;;;;6.5;3.9;;;;;;;16.7;100;98165.72;;;;
2021/09/18 13:07:21;;;;;;;5.1;3.3;;;;;;;16.98;100;98172.53;;;;
2021/09/18 13:17:22;;;;;;;5.9;3.5;;;;;;;16.91;100;98174.32;;;;
2021/09/18 13:27:21;;;;;;;7.4;4.2;;;;;;;16.47;100;98168.33;;;;
2021/09/18 13:37:21;;;;;;;5.9;2.6;;;;;;;16.16;100;98154.81;;;;
2021/09/18 13:47:21;;;;;;;8.9;3.1;;;;;;;16.4;100;98139.05;;;;
2021/09/18 13:57:21;;;;;;;5.4;3;;;;;;;16.31;100;98140.41;;;;
2021/09/18 14:07:21;;;;;;;6.5;4.2;;;;;;;15.82;100;98140.85;;;;
2021/09/18 14:17:20;;;;;;;11.6;7.8;;;;;;;15.34;100;98138.46;;;;
2021/09/18 14:27:20;;;;;;;17.8;10.2;;;;;;;15.42;100;98143.7;;;;
2021/09/18 14:37:21;;;;;;;12;8.5;;;;;;;15.48;100;98136.9;;;;
2021/09/18 14:47:20;;;;;;;14.1;7.5;;;;;;;15.23;100;98137.39;;;;
2021/09/18 14:57:20;;;;;;;9.1;7.3;;;;;;;15.33;100;98132.23;;;;
2021/09/18 15:07:19;;;;;;;8.4;5.7;;;;;;;15.51;100;98121.85;;;;
2021/09/18 15:17:19;;;;;;;7.2;4.5;;;;;;;15.46;100;98116.64;;;;
2021/09/18 15:27:19;;;;;;;4.5;3.1;;;;;;;15.39;100;98105.59;;;;
2021/09/18 15:37:19;;;;;;;6.8;4.5;;;;;;;15.03;100;98115.55;;;;
2021/09/18 15:47:18;;;;;;;8.2;3.1;;;;;;;14.89;100;98122.54;;;;
2021/09/18 15:57:18;;;;;;;9.2;3.4;;;;;;;14.66;100;98113.35;;;;
2021/09/18 16:07:20;;;;;;;7.3;3.9;;;;;;;14.33;100;98108.94;;;;
2021/09/18 16:17:17;;;;;;;7.1;3.6;;;;;;;14.03;100;98103;;;;
2021/09/18 16:27:20;;;;;;;8.7;3.2;;;;;;;13.86;100;98111.38;;;;
2021/09/18 16:37:17;;;;;;;8.6;5.1;;;;;;;13.72;100;98119.05;;;;
2021/09/18 16:47:16;;;;;;;10.1;6.6;;;;;;;13.62;100;98119.51;;;;
2021/09/18 16:57:16;;;;;;;9.8;6.1;;;;;;;13.42;100;98125.81;;;;
2021/09/18 17:07:16;;;;;;;8.4;5.8;;;;;;;13.4;100;98123.44;;;;
2021/09/18 17:17:20;;;;;;;9;5;;;;;;;13.3;100;98142.02;;;;
2021/09/18 17:27:20;;;;;;;7.6;5.8;;;;;;;13.02;100;98148.02;;;;
2021/09/18 17:37:16;;;;;;;11.4;7.4;;;;;;;13.05;100;98139.23;;;;
2021/09/18 17:47:16;;;;;;;9.6;5.8;;;;;;;12.88;100;98142.11;;;;
2021/09/18 17:57:18;;;;;;;9.8;7.8;;;;;;;12.9;100;98150.7;;;;
2021/09/18 18:07:12;;;;;;;8.3;7.1;;;;;;;12.8;100;98153.82;;;;
2021/09/18 18:17:12;;;;;;;12.9;10.9;;;;;;;12.83;100;98153.16;;;;
2021/09/18 18:27:11;;;;;;;13.6;9.8;;;;;;;12.72;100;98145.77;;;;
2021/09/18 18:37:10;;;;;;;10.9;8.9;;;;;;;12.74;100;98151.66;;;;
2021/09/18 18:47:09;;;;;;;10;7.5;;;;;;;12.76;100;98147.49;;;;
2021/09/18 18:57:09;;;;;;;8.7;7;;;;;;;12.73;100;98131.14;;;;
2021/09/18 19:07:08;;;;;;;15;8.2;;;;;;;12.75;100;98131.59;;;;
2021/09/18 19:17:08;;;;;;;9.2;6.8;;;;;;;12.73;100;98131.94;;;;
2021/09/18 19:27:07;;;;;;;7.9;5.5;;;;;;;12.75;100;98129.67;;;;
2021/09/18 19:37:06;;;;;;;7.5;5.3;;;;;;;12.76;100;98130.47;;;;
2021/09/18 19:47:06;;;;;;;9;5.8;;;;;;;12.75;100;98124.27;;;;
2021/09/18 19:57:05;;;;;;;8.6;6.3;;;;;;;12.8;100;98132.19;;;;
2021/09/18 20:07:05;;;;;;;5.9;3.8;;;;;;;12.72;100;98151.18;;;;
2021/09/18 20:17:04;;;;;;;2.2;1.2;;;;;;;12.57;100;98156.07;;;;
2021/09/18 20:27:03;;;;;;;3.5;1.5;;;;;;;12.29;100;98154.22;;;;
2021/09/18 20:37:03;;;;;;;3.7;1.1;;;;;;;12.3;100;98153.1;;;;
2021/09/18 20:47:02;;;;;;;4.5;1.4;;;;;;;12.14;100;98163.71;;;;
2021/09/18 20:57:01;;;;;;;3.7;2;;;;;;;12.08;100;98173.1;;;;
2021/09/18 21:07:01;;;;;;;3.3;1.8;;;;;;;12.01;100;98170.13;;;;
2021/09/18 21:17:00;;;;;;;4.5;2.7;;;;;;;12.07;100;98161.53;;;;
2021/09/18 21:26:59;;;;;;;3.4;2;;;;;;;12.06;100;98170.75;;;;
2021/09/18 21:36:58;;;;;;;2.9;1.6;;;;;;;12.01;100;98162.81;;;;
2021/09/18 21:46:58;;;;;;;3.5;1.8;;;;;;;12.03;100;98176.8;;;;
2021/09/18 21:56:57;;;;;;;4.7;2.3;;;;;;;12.13;100;98167.52;;;;
2021/09/18 22:06:56;;;;;;;3.9;1.7;;;;;;;12.03;100;98179.5;;;;
2021/09/18 22:16:55;;;;;;;3.1;1.3;;;;;;;11.96;100;98179.22;;;;
2021/09/18 22:26:55;;;;;;;2.9;1.4;;;;;;;12.04;100;98181.06;;;;
2021/09/18 22:36:54;;;;;;;4.4;1.6;;;;;;;12.06;100;98178.84;;;;
2021/09/18 22:46:53;;;;;;;5.1;1.7;;;;;;;12.03;100;98178.7;;;;
2021/09/18 22:56:53;;;;;;;3.8;2.3;;;;;;;12.08;100;98182;;;;
2021/09/18 23:06:52;;;;;;;3.9;2.9;;;;;;;11.93;100;98185.28;;;;
2021/09/18 23:16:51;;;;;;;3.5;1.8;;;;;;;11.99;100;98175.88;;;;
2021/09/18 23:26:51;;;;;;;4.3;2.4;;;;;;;11.85;100;98171.81;;;;
2021/09/18 23:36:50;;;;;;;4.3;1.9;;;;;;;11.81;100;98181.67;;;;
2021/09/18 23:46:49;;;;;;;8.7;4.5;;;;;;;11.73;100;98180.59;;;;
2021/09/18 23:56:48;;;;;;;8.9;3.8;;;;;;;11.75;100;98182.98;;;;
